sensor_id;sensor_type;location;lat;lon;timestamp;pressure;altitude;pressure_sealevel;temperature;humidity
59545;BME280;45368;55.002;-1.592;2023-02-16T00:02:09;100853.51;;;7.33;53.30
59545;BME280;45368;55.002;-1.592;2023-02-16T00:04:36;100850.40;;;7.31;52.96
59545;BME280;45368;55.002;-1.592;2023-02-16T00:07:03;100851.22;;;7.42;53.23
59545;BME280;45368;55.002;-1.592;2023-02-16T00:09:30;100856.96;;;7.21;53.90
59545;BME280;45368;55.002;-1.592;2023-02-16T00:11:57;100852.43;;;6.87;54.16
59545;BME280;45368;55.002;-1.592;2023-02-16T00:14:25;100851.78;;;6.35;55.93
59545;BME280;45368;55.002;-1.592;2023-02-16T00:16:53;100848.63;;;6.54;55.57
59545;BME280;45368;55.002;-1.592;2023-02-16T00:19:24;100844.95;;;6.81;54.95
59545;BME280;45368;55.002;-1.592;2023-02-16T00:21:53;100845.69;;;6.95;54.52
59545;BME280;45368;55.002;-1.592;2023-02-16T00:24:22;100846.58;;;7.22;54.21
59545;BME280;45368;55.002;-1.592;2023-02-16T00:26:50;100846.92;;;6.96;54.87
59545;BME280;45368;55.002;-1.592;2023-02-16T00:29:20;100844.95;;;6.92;55.50
59545;BME280;45368;55.002;-1.592;2023-02-16T00:31:49;100858.97;;;6.96;54.81
59545;BME280;45368;55.002;-1.592;2023-02-16T00:34:25;100850.84;;;7.15;54.49
59545;BME280;45368;55.002;-1.592;2023-02-16T00:36:53;100854.99;;;6.87;54.68
59545;BME280;45368;55.002;-1.592;2023-02-16T00:39:21;100853.66;;;7.40;54.11
59545;BME280;45368;55.002;-1.592;2023-02-16T00:41:48;100859.89;;;6.61;55.98
59545;BME280;45368;55.002;-1.592;2023-02-16T00:44:18;100858.36;;;7.68;53.62
59545;BME280;45368;55.002;-1.592;2023-02-16T00:46:46;100867.12;;;6.75;55.45
59545;BME280;45368;55.002;-1.592;2023-02-16T00:49:14;100876.84;;;6.15;58.06
59545;BME280;45368;55.002;-1.592;2023-02-16T00:51:42;100870.38;;;6.36;57.62
59545;BME280;45368;55.002;-1.592;2023-02-16T00:54:10;100866.30;;;6.59;57.49
59545;BME280;45368;55.002;-1.592;2023-02-16T00:56:38;100866.81;;;6.42;57.23
59545;BME280;45368;55.002;-1.592;2023-02-16T00:59:11;100870.65;;;6.61;57.68
59545;BME280;45368;55.002;-1.592;2023-02-16T01:01:41;100862.16;;;6.42;57.20
59545;BME280;45368;55.002;-1.592;2023-02-16T01:04:11;100868.84;;;6.29;59.13
59545;BME280;45368;55.002;-1.592;2023-02-16T01:06:41;100859.89;;;6.24;58.98
59545;BME280;45368;55.002;-1.592;2023-02-16T01:09:12;100856.64;;;6.29;59.93
59545;BME280;45368;55.002;-1.592;2023-02-16T01:11:40;100855.21;;;7.20;56.67
59545;BME280;45368;55.002;-1.592;2023-02-16T01:14:10;100850.92;;;7.57;55.36
59545;BME280;45368;55.002;-1.592;2023-02-16T01:16:40;100846.62;;;7.59;54.91
59545;BME280;45368;55.002;-1.592;2023-02-16T01:19:09;100854.84;;;7.14;56.96
59545;BME280;45368;55.002;-1.592;2023-02-16T01:21:37;100851.52;;;6.88;57.73
59545;BME280;45368;55.002;-1.592;2023-02-16T01:24:04;100855.71;;;6.54;59.41
59545;BME280;45368;55.002;-1.592;2023-02-16T01:26:37;100844.87;;;7.30;57.27
59545;BME280;45368;55.002;-1.592;2023-02-16T01:29:05;100852.61;;;6.84;58.47
59545;BME280;45368;55.002;-1.592;2023-02-16T01:31:32;100850.61;;;6.57;58.72
59545;BME280;45368;55.002;-1.592;2023-02-16T01:33:59;100847.53;;;7.54;56.95
59545;BME280;45368;55.002;-1.592;2023-02-16T01:36:29;100848.30;;;6.99;58.00
59545;BME280;45368;55.002;-1.592;2023-02-16T01:38:57;100844.59;;;7.50;56.94
59545;BME280;45368;55.002;-1.592;2023-02-16T01:41:39;100840.54;;;8.51;54.74
59545;BME280;45368;55.002;-1.592;2023-02-16T01:44:12;100840.35;;;8.21;54.05
59545;BME280;45368;55.002;-1.592;2023-02-16T01:46:48;100834.77;;;8.23;54.37
59545;BME280;45368;55.002;-1.592;2023-02-16T01:49:18;100832.01;;;8.63;52.70
59545;BME280;45368;55.002;-1.592;2023-02-16T01:51:51;100844.05;;;7.16;55.34
59545;BME280;45368;55.002;-1.592;2023-02-16T01:54:31;100838.69;;;8.42;53.12
59545;BME280;45368;55.002;-1.592;2023-02-16T01:57:04;100838.47;;;8.16;53.80
59545;BME280;45368;55.002;-1.592;2023-02-16T01:59:40;100843.27;;;8.99;51.74
59545;BME280;45368;55.002;-1.592;2023-02-16T02:02:29;100852.65;;;8.72;51.92
59545;BME280;45368;55.002;-1.592;2023-02-16T02:05:05;100844.99;;;9.70;50.11
59545;BME280;45368;55.002;-1.592;2023-02-16T02:07:36;100836.84;;;9.20;50.84
59545;BME280;45368;55.002;-1.592;2023-02-16T02:10:13;100841.97;;;7.52;54.31
59545;BME280;45368;55.002;-1.592;2023-02-16T02:12:48;100837.11;;;8.75;51.68
59545;BME280;45368;55.002;-1.592;2023-02-16T02:15:20;100835.47;;;8.54;52.09
59545;BME280;45368;55.002;-1.592;2023-02-16T02:17:49;100832.05;;;8.09;52.45
59545;BME280;45368;55.002;-1.592;2023-02-16T02:20:23;100827.55;;;7.50;54.31
59545;BME280;45368;55.002;-1.592;2023-02-16T02:23:15;100823.91;;;6.94;55.82
59545;BME280;45368;55.002;-1.592;2023-02-16T02:28:00;100816.24;;;7.46;56.25
59545;BME280;45368;55.002;-1.592;2023-02-16T02:30:41;100804.89;;;8.17;53.25
59545;BME280;45368;55.002;-1.592;2023-02-16T02:33:25;100796.33;;;8.73;52.13
59545;BME280;45368;55.002;-1.592;2023-02-16T02:36:02;100795.01;;;8.22;52.73
59545;BME280;45368;55.002;-1.592;2023-02-16T02:38:46;100796.61;;;7.75;54.04
59545;BME280;45368;55.002;-1.592;2023-02-16T02:41:18;100790.36;;;7.58;53.93
59545;BME280;45368;55.002;-1.592;2023-02-16T02:43:51;100796.54;;;7.19;55.00
59545;BME280;45368;55.002;-1.592;2023-02-16T02:46:26;100785.99;;;8.51;52.50
59545;BME280;45368;55.002;-1.592;2023-02-16T02:48:55;100779.15;;;8.58;51.82
59545;BME280;45368;55.002;-1.592;2023-02-16T02:51:22;100777.56;;;7.94;53.05
59545;BME280;45368;55.002;-1.592;2023-02-16T02:53:51;100773.29;;;7.73;52.65
59545;BME280;45368;55.002;-1.592;2023-02-16T02:56:20;100767.15;;;9.05;50.59
59545;BME280;45368;55.002;-1.592;2023-02-16T02:58:50;100768.53;;;8.29;51.73
59545;BME280;45368;55.002;-1.592;2023-02-16T03:01:22;100765.21;;;8.77;51.12
59545;BME280;45368;55.002;-1.592;2023-02-16T03:03:52;100762.32;;;7.67;53.54
59545;BME280;45368;55.002;-1.592;2023-02-16T03:06:25;100764.72;;;7.38;55.01
59545;BME280;45368;55.002;-1.592;2023-02-16T03:08:57;100757.78;;;8.11;52.70
59545;BME280;45368;55.002;-1.592;2023-02-16T03:11:27;100760.46;;;8.07;53.49
59545;BME280;45368;55.002;-1.592;2023-02-16T03:13:58;100761.82;;;7.59;54.29
59545;BME280;45368;55.002;-1.592;2023-02-16T03:16:31;100767.13;;;6.71;56.01
59545;BME280;45368;55.002;-1.592;2023-02-16T03:19:02;100768.33;;;6.64;56.09
59545;BME280;45368;55.002;-1.592;2023-02-16T03:21:31;100777.85;;;6.28;58.12
59545;BME280;45368;55.002;-1.592;2023-02-16T03:24:02;100779.51;;;6.78;56.77
59545;BME280;45368;55.002;-1.592;2023-02-16T03:26:31;100772.83;;;7.24;55.37
59545;BME280;45368;55.002;-1.592;2023-02-16T03:29:01;100766.71;;;7.48;56.14
59545;BME280;45368;55.002;-1.592;2023-02-16T03:31:31;100765.28;;;7.52;55.44
59545;BME280;45368;55.002;-1.592;2023-02-16T03:34:00;100770.82;;;6.79;57.75
59545;BME280;45368;55.002;-1.592;2023-02-16T03:36:30;100767.02;;;6.86;58.20
59545;BME280;45368;55.002;-1.592;2023-02-16T03:38:59;100776.39;;;6.01;60.85
59545;BME280;45368;55.002;-1.592;2023-02-16T03:41:31;100774.26;;;5.53;62.95
59545;BME280;45368;55.002;-1.592;2023-02-16T03:43:59;100767.19;;;6.28;61.15
59545;BME280;45368;55.002;-1.592;2023-02-16T03:46:26;100758.01;;;6.51;60.33
59545;BME280;45368;55.002;-1.592;2023-02-16T03:48:53;100752.24;;;6.69;59.60
59545;BME280;45368;55.002;-1.592;2023-02-16T03:51:20;100748.50;;;6.15;60.99
59545;BME280;45368;55.002;-1.592;2023-02-16T03:53:48;100752.11;;;5.47;61.64
59545;BME280;45368;55.002;-1.592;2023-02-16T03:56:16;100749.62;;;5.71;62.04
59545;BME280;45368;55.002;-1.592;2023-02-16T03:58:43;100746.27;;;6.64;60.03
59545;BME280;45368;55.002;-1.592;2023-02-16T04:01:10;100739.16;;;7.05;58.67
59545;BME280;45368;55.002;-1.592;2023-02-16T04:03:37;100743.14;;;6.98;59.06
59545;BME280;45368;55.002;-1.592;2023-02-16T04:06:05;100742.16;;;7.63;57.38
59545;BME280;45368;55.002;-1.592;2023-02-16T04:08:32;100745.89;;;6.22;59.93
59545;BME280;45368;55.002;-1.592;2023-02-16T04:10:59;100741.31;;;6.68;59.36
59545;BME280;45368;55.002;-1.592;2023-02-16T04:13:26;100740.26;;;6.07;60.36
59545;BME280;45368;55.002;-1.592;2023-02-16T04:15:53;100726.01;;;6.69;59.76
59545;BME280;45368;55.002;-1.592;2023-02-16T04:18:20;100716.06;;;7.25;57.95
59545;BME280;45368;55.002;-1.592;2023-02-16T04:20:46;100721.80;;;7.51;56.81
59545;BME280;45368;55.002;-1.592;2023-02-16T04:23:13;100725.00;;;6.82;58.44
59545;BME280;45368;55.002;-1.592;2023-02-16T04:25:40;100724.39;;;6.97;57.80
59545;BME280;45368;55.002;-1.592;2023-02-16T04:28:07;100715.50;;;7.14;57.88
59545;BME280;45368;55.002;-1.592;2023-02-16T04:30:34;100708.95;;;7.36;57.26
59545;BME280;45368;55.002;-1.592;2023-02-16T04:33:01;100701.20;;;6.95;58.71
59545;BME280;45368;55.002;-1.592;2023-02-16T04:35:28;100702.06;;;7.45;58.28
59545;BME280;45368;55.002;-1.592;2023-02-16T04:37:55;100701.31;;;6.95;58.57
59545;BME280;45368;55.002;-1.592;2023-02-16T04:40:22;100699.90;;;7.22;58.61
59545;BME280;45368;55.002;-1.592;2023-02-16T04:42:48;100698.58;;;8.12;56.39
59545;BME280;45368;55.002;-1.592;2023-02-16T04:45:16;100702.58;;;8.18;55.52
59545;BME280;45368;55.002;-1.592;2023-02-16T04:47:43;100704.67;;;6.78;58.25
59545;BME280;45368;55.002;-1.592;2023-02-16T04:50:11;100706.18;;;7.06;57.97
59545;BME280;45368;55.002;-1.592;2023-02-16T04:52:38;100701.85;;;7.68;57.07
59545;BME280;45368;55.002;-1.592;2023-02-16T04:55:06;100693.72;;;7.03;57.90
59545;BME280;45368;55.002;-1.592;2023-02-16T04:57:34;100685.00;;;6.90;58.67
59545;BME280;45368;55.002;-1.592;2023-02-16T05:00:01;100686.88;;;5.70;61.49
59545;BME280;45368;55.002;-1.592;2023-02-16T05:02:28;100682.51;;;5.68;62.44
59545;BME280;45368;55.002;-1.592;2023-02-16T05:04:55;100668.93;;;6.45;60.49
59545;BME280;45368;55.002;-1.592;2023-02-16T05:07:22;100664.26;;;6.40;60.61
59545;BME280;45368;55.002;-1.592;2023-02-16T05:09:50;100674.86;;;5.41;62.95
59545;BME280;45368;55.002;-1.592;2023-02-16T05:12:17;100677.31;;;5.90;61.81
59545;BME280;45368;55.002;-1.592;2023-02-16T05:14:44;100671.76;;;6.33;60.03
59545;BME280;45368;55.002;-1.592;2023-02-16T05:17:13;100668.45;;;6.82;58.81
59545;BME280;45368;55.002;-1.592;2023-02-16T05:19:42;100666.28;;;7.03;57.90
59545;BME280;45368;55.002;-1.592;2023-02-16T05:22:10;100658.99;;;7.33;57.61
59545;BME280;45368;55.002;-1.592;2023-02-16T05:24:38;100663.38;;;7.12;57.68
59545;BME280;45368;55.002;-1.592;2023-02-16T05:27:11;100663.15;;;7.29;57.44
59545;BME280;45368;55.002;-1.592;2023-02-16T05:29:38;100666.30;;;7.77;56.48
59545;BME280;45368;55.002;-1.592;2023-02-16T05:32:06;100672.16;;;6.87;58.15
59545;BME280;45368;55.002;-1.592;2023-02-16T05:34:33;100676.66;;;5.72;61.53
59545;BME280;45368;55.002;-1.592;2023-02-16T05:37:00;100668.65;;;5.81;62.03
59545;BME280;45368;55.002;-1.592;2023-02-16T05:39:28;100663.78;;;5.64;62.46
59545;BME280;45368;55.002;-1.592;2023-02-16T05:41:55;100666.02;;;5.61;62.67
59545;BME280;45368;55.002;-1.592;2023-02-16T05:44:23;100671.87;;;4.74;65.75
59545;BME280;45368;55.002;-1.592;2023-02-16T05:46:50;100670.35;;;4.84;65.74
59545;BME280;45368;55.002;-1.592;2023-02-16T05:49:17;100672.69;;;4.27;66.89
59545;BME280;45368;55.002;-1.592;2023-02-16T05:51:45;100660.85;;;5.23;64.65
59545;BME280;45368;55.002;-1.592;2023-02-16T05:54:17;100655.28;;;6.06;62.28
59545;BME280;45368;55.002;-1.592;2023-02-16T05:56:46;100658.89;;;5.02;64.73
59545;BME280;45368;55.002;-1.592;2023-02-16T05:59:14;100660.17;;;5.05;64.96
59545;BME280;45368;55.002;-1.592;2023-02-16T06:01:42;100660.08;;;4.98;66.00
59545;BME280;45368;55.002;-1.592;2023-02-16T06:04:11;100659.40;;;5.55;64.93
59545;BME280;45368;55.002;-1.592;2023-02-16T06:06:40;100665.43;;;5.01;66.01
59545;BME280;45368;55.002;-1.592;2023-02-16T06:09:08;100663.61;;;4.61;66.79
59545;BME280;45368;55.002;-1.592;2023-02-16T06:11:35;100670.42;;;4.55;66.67
59545;BME280;45368;55.002;-1.592;2023-02-16T06:14:05;100671.96;;;5.13;65.49
59545;BME280;45368;55.002;-1.592;2023-02-16T06:16:33;100667.46;;;5.35;65.00
59545;BME280;45368;55.002;-1.592;2023-02-16T06:19:01;100673.61;;;5.89;63.28
59545;BME280;45368;55.002;-1.592;2023-02-16T06:21:29;100679.13;;;4.72;66.85
59545;BME280;45368;55.002;-1.592;2023-02-16T06:23:57;100690.27;;;4.72;67.67
59545;BME280;45368;55.002;-1.592;2023-02-16T06:26:24;100680.80;;;5.42;65.98
59545;BME280;45368;55.002;-1.592;2023-02-16T06:28:57;100677.99;;;5.84;63.80
59545;BME280;45368;55.002;-1.592;2023-02-16T06:31:24;100679.21;;;5.40;65.22
59545;BME280;45368;55.002;-1.592;2023-02-16T06:33:52;100681.94;;;4.71;66.49
59545;BME280;45368;55.002;-1.592;2023-02-16T06:36:20;100677.36;;;5.02;66.01
59545;BME280;45368;55.002;-1.592;2023-02-16T06:38:48;100669.92;;;5.33;64.86
59545;BME280;45368;55.002;-1.592;2023-02-16T06:41:16;100671.54;;;4.85;66.50
59545;BME280;45368;55.002;-1.592;2023-02-16T06:43:43;100668.26;;;5.26;65.76
59545;BME280;45368;55.002;-1.592;2023-02-16T06:46:12;100667.65;;;5.71;64.99
59545;BME280;45368;55.002;-1.592;2023-02-16T06:48:44;100663.38;;;5.89;63.99
59545;BME280;45368;55.002;-1.592;2023-02-16T06:51:12;100660.19;;;5.50;64.61
59545;BME280;45368;55.002;-1.592;2023-02-16T06:53:42;100656.08;;;6.19;63.14
59545;BME280;45368;55.002;-1.592;2023-02-16T06:56:09;100651.86;;;6.19;62.90
59545;BME280;45368;55.002;-1.592;2023-02-16T06:58:36;100652.57;;;5.86;63.99
59545;BME280;45368;55.002;-1.592;2023-02-16T07:01:03;100651.78;;;6.30;63.01
59545;BME280;45368;55.002;-1.592;2023-02-16T07:03:31;100656.87;;;7.24;60.84
59545;BME280;45368;55.002;-1.592;2023-02-16T07:05:58;100663.91;;;7.68;59.23
59545;BME280;45368;55.002;-1.592;2023-02-16T07:08:25;100662.88;;;7.31;58.67
59545;BME280;45368;55.002;-1.592;2023-02-16T07:10:53;100663.65;;;7.37;58.40
59545;BME280;45368;55.002;-1.592;2023-02-16T07:13:20;100659.75;;;7.91;57.52
59545;BME280;45368;55.002;-1.592;2023-02-16T07:15:48;100662.00;;;8.23;56.91
59545;BME280;45368;55.002;-1.592;2023-02-16T07:18:15;100666.25;;;8.33;56.26
59545;BME280;45368;55.002;-1.592;2023-02-16T07:20:42;100664.72;;;8.44;55.21
59545;BME280;45368;55.002;-1.592;2023-02-16T07:23:09;100676.93;;;7.00;59.44
59545;BME280;45368;55.002;-1.592;2023-02-16T07:25:36;100679.11;;;7.57;58.27
59545;BME280;45368;55.002;-1.592;2023-02-16T07:28:03;100679.41;;;7.48;58.06
59545;BME280;45368;55.002;-1.592;2023-02-16T07:30:30;100682.42;;;7.64;58.13
59545;BME280;45368;55.002;-1.592;2023-02-16T07:32:57;100680.39;;;7.80;57.02
59545;BME280;45368;55.002;-1.592;2023-02-16T07:35:25;100674.98;;;8.21;56.50
59545;BME280;45368;55.002;-1.592;2023-02-16T07:37:52;100674.30;;;8.55;56.17
59545;BME280;45368;55.002;-1.592;2023-02-16T07:40:19;100671.45;;;8.01;56.91
59545;BME280;45368;55.002;-1.592;2023-02-16T07:42:46;100671.21;;;7.88;57.17
59545;BME280;45368;55.002;-1.592;2023-02-16T07:45:13;100672.94;;;6.86;60.90
59545;BME280;45368;55.002;-1.592;2023-02-16T07:47:40;100671.69;;;6.40;62.19
59545;BME280;45368;55.002;-1.592;2023-02-16T07:50:09;100663.64;;;7.00;60.93
59545;BME280;45368;55.002;-1.592;2023-02-16T07:52:36;100665.46;;;6.52;61.47
59545;BME280;45368;55.002;-1.592;2023-02-16T07:55:03;100661.39;;;6.83;61.21
59545;BME280;45368;55.002;-1.592;2023-02-16T07:57:30;100664.08;;;6.88;61.13
59545;BME280;45368;55.002;-1.592;2023-02-16T07:59:57;100665.07;;;6.04;63.16
59545;BME280;45368;55.002;-1.592;2023-02-16T08:02:24;100665.99;;;7.09;60.94
59545;BME280;45368;55.002;-1.592;2023-02-16T08:04:52;100673.09;;;6.50;62.52
59545;BME280;45368;55.002;-1.592;2023-02-16T08:07:20;100675.73;;;5.94;64.21
59545;BME280;45368;55.002;-1.592;2023-02-16T08:09:47;100677.28;;;6.39;62.82
59545;BME280;45368;55.002;-1.592;2023-02-16T08:12:16;100684.39;;;6.48;62.82
59545;BME280;45368;55.002;-1.592;2023-02-16T08:14:43;100687.90;;;6.04;64.11
59545;BME280;45368;55.002;-1.592;2023-02-16T08:17:11;100677.12;;;6.15;63.29
59545;BME280;45368;55.002;-1.592;2023-02-16T08:19:40;100675.58;;;5.90;64.55
59545;BME280;45368;55.002;-1.592;2023-02-16T08:22:08;100671.15;;;5.86;64.46
59545;BME280;45368;55.002;-1.592;2023-02-16T08:24:36;100669.98;;;6.20;62.97
59545;BME280;45368;55.002;-1.592;2023-02-16T08:27:03;100670.53;;;6.52;63.37
59545;BME280;45368;55.002;-1.592;2023-02-16T08:29:32;100666.30;;;6.98;62.00
59545;BME280;45368;55.002;-1.592;2023-02-16T08:31:59;100661.78;;;6.53;61.82
59545;BME280;45368;55.002;-1.592;2023-02-16T08:34:28;100660.08;;;7.16;61.35
59545;BME280;45368;55.002;-1.592;2023-02-16T08:36:56;100656.44;;;6.86;61.90
59545;BME280;45368;55.002;-1.592;2023-02-16T08:39:25;100654.11;;;6.20;63.23
59545;BME280;45368;55.002;-1.592;2023-02-16T08:41:53;100658.11;;;6.24;64.26
59545;BME280;45368;55.002;-1.592;2023-02-16T08:44:22;100659.79;;;5.66;65.67
59545;BME280;45368;55.002;-1.592;2023-02-16T08:46:51;100646.99;;;6.61;64.05
59545;BME280;45368;55.002;-1.592;2023-02-16T08:49:20;100661.19;;;5.72;65.70
59545;BME280;45368;55.002;-1.592;2023-02-16T08:51:51;100668.83;;;5.72;66.09
59545;BME280;45368;55.002;-1.592;2023-02-16T08:54:20;100678.10;;;4.47;68.80
59545;BME280;45368;55.002;-1.592;2023-02-16T08:56:48;100681.24;;;5.88;65.72
59545;BME280;45368;55.002;-1.592;2023-02-16T08:59:17;100677.01;;;5.64;66.36
59545;BME280;45368;55.002;-1.592;2023-02-16T09:01:45;100680.44;;;5.61;66.11
59545;BME280;45368;55.002;-1.592;2023-02-16T09:04:14;100675.54;;;5.94;64.71
59545;BME280;45368;55.002;-1.592;2023-02-16T09:06:44;100668.96;;;6.21;64.20
59545;BME280;45368;55.002;-1.592;2023-02-16T09:09:12;100674.47;;;5.31;66.90
59545;BME280;45368;55.002;-1.592;2023-02-16T09:11:40;100677.14;;;5.80;66.12
59545;BME280;45368;55.002;-1.592;2023-02-16T09:14:07;100666.33;;;6.47;63.90
59545;BME280;45368;55.002;-1.592;2023-02-16T09:16:35;100662.84;;;5.79;66.64
59545;BME280;45368;55.002;-1.592;2023-02-16T09:19:02;100662.70;;;5.92;65.02
59545;BME280;45368;55.002;-1.592;2023-02-16T09:21:30;100668.33;;;5.63;65.72
59545;BME280;45368;55.002;-1.592;2023-02-16T09:24:00;100659.13;;;6.11;64.46
59545;BME280;45368;55.002;-1.592;2023-02-16T09:26:31;100656.46;;;6.55;64.51
59545;BME280;45368;55.002;-1.592;2023-02-16T09:29:00;100650.89;;;6.04;65.80
59545;BME280;45368;55.002;-1.592;2023-02-16T09:31:29;100645.46;;;6.12;65.46
59545;BME280;45368;55.002;-1.592;2023-02-16T09:34:00;100647.24;;;6.03;65.58
59545;BME280;45368;55.002;-1.592;2023-02-16T09:36:28;100655.50;;;5.70;66.43
59545;BME280;45368;55.002;-1.592;2023-02-16T09:38:56;100656.45;;;5.57;67.44
59545;BME280;45368;55.002;-1.592;2023-02-16T09:41:31;100650.60;;;6.46;64.70
59545;BME280;45368;55.002;-1.592;2023-02-16T09:44:05;100651.41;;;6.39;65.24
59545;BME280;45368;55.002;-1.592;2023-02-16T09:46:40;100653.04;;;6.10;65.83
59545;BME280;45368;55.002;-1.592;2023-02-16T09:49:21;100653.24;;;6.71;63.74
59545;BME280;45368;55.002;-1.592;2023-02-16T09:51:57;100651.46;;;7.63;61.58
59545;BME280;45368;55.002;-1.592;2023-02-16T09:54:32;100647.35;;;8.47;59.56
59545;BME280;45368;55.002;-1.592;2023-02-16T09:57:04;100645.51;;;8.89;57.92
59545;BME280;45368;55.002;-1.592;2023-02-16T09:59:42;100643.46;;;8.51;57.87
59545;BME280;45368;55.002;-1.592;2023-02-16T10:02:26;100648.39;;;7.28;60.92
59545;BME280;45368;55.002;-1.592;2023-02-16T10:05:10;100644.36;;;7.33;60.79
59545;BME280;45368;55.002;-1.592;2023-02-16T10:07:44;100636.41;;;7.91;60.21
59545;BME280;45368;55.002;-1.592;2023-02-16T10:10:21;100635.93;;;6.91;63.27
59545;BME280;45368;55.002;-1.592;2023-02-16T10:12:55;100630.83;;;6.59;64.13
59545;BME280;45368;55.002;-1.592;2023-02-16T10:15:26;100628.35;;;7.39;62.70
59545;BME280;45368;55.002;-1.592;2023-02-16T10:17:58;100625.47;;;7.42;62.95
59545;BME280;45368;55.002;-1.592;2023-02-16T10:20:30;100629.88;;;7.85;61.86
59545;BME280;45368;55.002;-1.592;2023-02-16T10:23:03;100631.07;;;7.52;61.89
59545;BME280;45368;55.002;-1.592;2023-02-16T10:25:41;100645.73;;;8.18;60.47
59545;BME280;45368;55.002;-1.592;2023-02-16T10:28:15;100648.30;;;8.05;60.20
59545;BME280;45368;55.002;-1.592;2023-02-16T10:30:48;100641.99;;;7.82;60.77
59545;BME280;45368;55.002;-1.592;2023-02-16T10:33:32;100638.16;;;7.57;61.72
59545;BME280;45368;55.002;-1.592;2023-02-16T10:36:15;100642.13;;;7.44;62.28
59545;BME280;45368;55.002;-1.592;2023-02-16T10:38:48;100638.27;;;7.55;61.93
59545;BME280;45368;55.002;-1.592;2023-02-16T10:41:24;100633.50;;;8.16;61.01
59545;BME280;45368;55.002;-1.592;2023-02-16T10:43:59;100625.03;;;8.33;60.05
59545;BME280;45368;55.002;-1.592;2023-02-16T10:46:31;100621.95;;;8.52;59.96
59545;BME280;45368;55.002;-1.592;2023-02-16T10:49:00;100616.34;;;9.01;58.11
59545;BME280;45368;55.002;-1.592;2023-02-16T10:51:31;100610.40;;;8.60;58.57
59545;BME280;45368;55.002;-1.592;2023-02-16T10:54:02;100608.93;;;9.14;57.79
59545;BME280;45368;55.002;-1.592;2023-02-16T10:56:42;100603.30;;;9.72;55.95
59545;BME280;45368;55.002;-1.592;2023-02-16T10:59:15;100608.91;;;9.66;55.90
59545;BME280;45368;55.002;-1.592;2023-02-16T11:01:45;100617.44;;;9.61;56.69
59545;BME280;45368;55.002;-1.592;2023-02-16T11:04:34;100622.89;;;8.96;56.96
59545;BME280;45368;55.002;-1.592;2023-02-16T11:07:04;100617.44;;;9.58;55.69
59545;BME280;45368;55.002;-1.592;2023-02-16T11:09:31;100609.29;;;9.61;55.90
59545;BME280;45368;55.002;-1.592;2023-02-16T11:11:59;100614.02;;;8.90;57.55
59545;BME280;45368;55.002;-1.592;2023-02-16T11:14:28;100606.18;;;9.37;57.59
59545;BME280;45368;55.002;-1.592;2023-02-16T11:17:06;100608.98;;;8.97;58.46
59545;BME280;45368;55.002;-1.592;2023-02-16T11:19:34;100606.51;;;9.29;57.37
59545;BME280;45368;55.002;-1.592;2023-02-16T11:22:02;100609.60;;;9.03;56.56
59545;BME280;45368;55.002;-1.592;2023-02-16T11:24:31;100614.33;;;9.56;56.13
59545;BME280;45368;55.002;-1.592;2023-02-16T11:27:09;100605.84;;;10.78;53.63
59545;BME280;45368;55.002;-1.592;2023-02-16T11:29:44;100604.23;;;10.35;53.85
59545;BME280;45368;55.002;-1.592;2023-02-16T11:32:13;100594.35;;;10.87;52.52
59545;BME280;45368;55.002;-1.592;2023-02-16T11:34:43;100589.20;;;9.94;54.67
59545;BME280;45368;55.002;-1.592;2023-02-16T11:37:15;100582.57;;;9.54;55.85
59545;BME280;45368;55.002;-1.592;2023-02-16T11:39:49;100590.86;;;9.71;56.46
59545;BME280;45368;55.002;-1.592;2023-02-16T11:42:23;100595.18;;;9.18;57.26
59545;BME280;45368;55.002;-1.592;2023-02-16T11:44:56;100587.70;;;9.18;57.97
59545;BME280;45368;55.002;-1.592;2023-02-16T11:47:28;100583.42;;;9.31;57.43
59545;BME280;45368;55.002;-1.592;2023-02-16T11:50:15;100580.53;;;8.92;58.28
59545;BME280;45368;55.002;-1.592;2023-02-16T11:52:44;100581.71;;;9.54;57.06
59545;BME280;45368;55.002;-1.592;2023-02-16T11:55:21;100575.45;;;8.93;58.62
59545;BME280;45368;55.002;-1.592;2023-02-16T11:57:49;100571.66;;;8.57;59.18
59545;BME280;45368;55.002;-1.592;2023-02-16T12:00:18;100568.89;;;9.29;58.82
59545;BME280;45368;55.002;-1.592;2023-02-16T12:03:05;100570.01;;;8.55;59.54
59545;BME280;45368;55.002;-1.592;2023-02-16T12:05:45;100556.12;;;9.10;59.54
59545;BME280;45368;55.002;-1.592;2023-02-16T12:08:28;100543.11;;;9.71;57.22
59545;BME280;45368;55.002;-1.592;2023-02-16T12:11:08;100535.02;;;9.20;58.54
59545;BME280;45368;55.002;-1.592;2023-02-16T12:13:49;100534.70;;;9.13;59.20
59545;BME280;45368;55.002;-1.592;2023-02-16T12:16:29;100532.65;;;8.72;59.11
59545;BME280;45368;55.002;-1.592;2023-02-16T12:19:10;100534.48;;;8.66;59.76
59545;BME280;45368;55.002;-1.592;2023-02-16T12:21:48;100535.52;;;9.14;57.89
59545;BME280;45368;55.002;-1.592;2023-02-16T12:24:26;100532.01;;;9.93;56.55
59545;BME280;45368;55.002;-1.592;2023-02-16T12:27:09;100544.47;;;8.83;60.08
59545;BME280;45368;55.002;-1.592;2023-02-16T12:29:48;100544.23;;;8.78;59.56
59545;BME280;45368;55.002;-1.592;2023-02-16T12:32:29;100547.24;;;8.68;59.93
59545;BME280;45368;55.002;-1.592;2023-02-16T12:35:10;100540.82;;;9.10;58.61
59545;BME280;45368;55.002;-1.592;2023-02-16T12:37:45;100545.35;;;9.49;58.27
59545;BME280;45368;55.002;-1.592;2023-02-16T12:40:22;100549.66;;;9.64;56.96
59545;BME280;45368;55.002;-1.592;2023-02-16T12:43:01;100555.84;;;9.94;56.73
59545;BME280;45368;55.002;-1.592;2023-02-16T12:45:34;100564.06;;;10.07;57.23
59545;BME280;45368;55.002;-1.592;2023-02-16T12:48:15;100563.92;;;10.90;54.73
59545;BME280;45368;55.002;-1.592;2023-02-16T12:50:47;100549.18;;;11.59;52.80
59545;BME280;45368;55.002;-1.592;2023-02-16T12:53:20;100543.71;;;12.67;50.71
59545;BME280;45368;55.002;-1.592;2023-02-16T12:55:53;100535.54;;;12.46;49.79
59545;BME280;45368;55.002;-1.592;2023-02-16T12:58:24;100531.60;;;12.86;49.22
59545;BME280;45368;55.002;-1.592;2023-02-16T13:00:54;100535.82;;;12.67;48.92
59545;BME280;45368;55.002;-1.592;2023-02-16T13:03:35;100535.87;;;11.79;51.15
59545;BME280;45368;55.002;-1.592;2023-02-16T13:06:12;100536.05;;;11.18;52.93
59545;BME280;45368;55.002;-1.592;2023-02-16T13:08:47;100533.12;;;10.84;53.72
59545;BME280;45368;55.002;-1.592;2023-02-16T13:11:20;100531.63;;;11.69;51.88